createdAt,value
2022-09-15T00:00:59.163Z,15.48
2022-09-15T00:03:25.796Z,15.40
2022-09-15T00:05:53.001Z,15.43
2022-09-15T00:08:19.638Z,15.52
2022-09-15T00:10:57.722Z,15.48
2022-09-15T00:13:24.664Z,15.38
2022-09-15T00:15:51.444Z,15.42
2022-09-15T00:18:18.153Z,15.41
2022-09-15T00:20:45.340Z,15.38
2022-09-15T00:23:13.040Z,15.45
2022-09-15T00:25:47.619Z,15.38
2022-09-15T00:28:15.210Z,15.39
2022-09-15T00:30:47.032Z,15.48
2022-09-15T00:33:14.364Z,15.47
2022-09-15T00:35:42.969Z,15.47
2022-09-15T00:38:10.098Z,15.48
2022-09-15T00:40:52.943Z,15.50
2022-09-15T00:43:21.535Z,15.50
2022-09-15T00:45:48.127Z,15.45
2022-09-15T00:48:21.681Z,15.45
2022-09-15T00:50:51.989Z,15.52
2022-09-15T00:53:18.724Z,15.47
2022-09-15T00:55:48.632Z,15.47
2022-09-15T00:58:25.009Z,15.43
2022-09-15T01:00:55.075Z,15.56
2022-09-15T01:03:23.312Z,15.46
2022-09-15T01:05:53.057Z,15.42
2022-09-15T01:08:36.846Z,15.42
2022-09-15T01:11:03.593Z,15.44
2022-09-15T01:13:30.369Z,15.44
2022-09-15T01:16:05.956Z,15.46
2022-09-15T01:19:03.542Z,15.44
2022-09-15T01:22:03.533Z,15.47
2022-09-15T01:25:01.271Z,15.44
2022-09-15T01:27:48.875Z,15.54
2022-09-15T01:30:24.981Z,15.48
2022-09-15T01:33:10.141Z,15.44
2022-09-15T01:35:40.382Z,15.34
2022-09-15T01:38:15.744Z,15.31
2022-09-15T01:40:45.458Z,15.26
2022-09-15T01:43:12.098Z,15.31
2022-09-15T01:45:39.287Z,15.26
2022-09-15T01:48:05.979Z,15.15
2022-09-15T01:50:38.904Z,15.14
2022-09-15T01:53:08.542Z,15.18
2022-09-15T01:55:52.666Z,15.19
2022-09-15T01:58:19.311Z,15.20
2022-09-15T02:00:49.502Z,15.20
2022-09-15T02:03:46.376Z,15.19
2022-09-15T02:06:37.513Z,15.21
2022-09-15T02:09:43.018Z,15.26
2022-09-15T02:12:41.339Z,15.25
2022-09-15T02:15:11.440Z,15.28
2022-09-15T02:17:42.784Z,15.27
2022-09-15T02:20:09.685Z,15.20
2022-09-15T02:22:37.240Z,15.19
2022-09-15T02:25:14.152Z,15.19
2022-09-15T02:27:43.221Z,15.24
2022-09-15T02:30:11.299Z,15.16
2022-09-15T02:32:38.764Z,15.24
2022-09-15T02:35:06.132Z,15.23
2022-09-15T02:37:32.758Z,15.27
2022-09-15T02:39:59.666Z,15.32
2022-09-15T02:42:27.509Z,15.43
2022-09-15T02:44:54.500Z,15.28
2022-09-15T02:47:21.541Z,15.28
2022-09-15T02:49:48.185Z,15.18
2022-09-15T02:52:14.840Z,15.14
2022-09-15T02:54:41.462Z,15.14
2022-09-15T02:57:08.094Z,15.10
2022-09-15T02:59:34.790Z,15.13
2022-09-15T03:02:01.440Z,15.07
2022-09-15T03:04:28.069Z,15.09
2022-09-15T03:06:54.720Z,15.13
2022-09-15T03:09:21.654Z,15.01
2022-09-15T03:11:48.262Z,15.07
2022-09-15T03:14:15.884Z,14.95
2022-09-15T03:16:42.582Z,15.00
2022-09-15T03:19:09.225Z,14.93
2022-09-15T03:21:36.423Z,14.90
2022-09-15T03:24:03.015Z,14.92
2022-09-15T03:26:29.646Z,14.94
2022-09-15T03:28:56.223Z,14.89
2022-09-15T03:31:22.847Z,14.88
2022-09-15T03:33:49.741Z,14.91
2022-09-15T03:36:16.598Z,14.91
2022-09-15T03:38:43.261Z,14.98
2022-09-15T03:41:12.970Z,14.98
2022-09-15T03:43:39.936Z,14.95
2022-09-15T03:46:07.129Z,14.88
2022-09-15T03:48:34.834Z,14.85
2022-09-15T03:51:02.501Z,14.82
2022-09-15T03:53:31.670Z,14.86
2022-09-15T03:56:18.894Z,14.78
2022-09-15T03:58:45.640Z,14.73
2022-09-15T04:01:12.706Z,14.74
2022-09-15T04:03:45.214Z,14.76
2022-09-15T04:06:13.248Z,14.73
2022-09-15T04:08:39.850Z,14.66
2022-09-15T04:11:07.347Z,14.67
2022-09-15T04:13:34.855Z,14.63
2022-09-15T04:16:03.036Z,14.65
2022-09-15T04:18:30.211Z,14.74
2022-09-15T04:21:01.244Z,14.70
2022-09-15T04:23:28.301Z,14.66
2022-09-15T04:25:58.025Z,14.72
2022-09-15T04:28:25.466Z,14.61
2022-09-15T04:30:53.081Z,14.69
2022-09-15T04:33:20.033Z,14.61
2022-09-15T04:35:46.790Z,14.55
2022-09-15T04:38:13.421Z,14.55
2022-09-15T04:40:40.070Z,14.61
2022-09-15T04:43:06.764Z,14.57
2022-09-15T04:45:33.411Z,14.57
2022-09-15T04:48:00.109Z,14.52
2022-09-15T04:50:26.759Z,14.56
2022-09-15T04:52:53.374Z,14.57
2022-09-15T04:55:20.043Z,14.63
2022-09-15T04:57:46.674Z,14.63
2022-09-15T05:00:13.840Z,14.68
2022-09-15T05:02:40.432Z,14.64
2022-09-15T05:05:07.777Z,14.71
2022-09-15T05:07:34.425Z,14.68
2022-09-15T05:10:01.076Z,14.69
2022-09-15T05:12:27.700Z,14.72
2022-09-15T05:14:54.374Z,14.75
2022-09-15T05:17:24.057Z,14.78
2022-09-15T05:19:53.267Z,14.67
2022-09-15T05:22:23.707Z,14.71
2022-09-15T05:24:50.452Z,14.80
2022-09-15T05:27:17.132Z,14.66
2022-09-15T05:29:43.779Z,14.73
2022-09-15T05:32:10.757Z,14.59
2022-09-15T05:34:37.561Z,14.65
2022-09-15T05:37:04.342Z,14.59
2022-09-15T05:39:30.933Z,14.64
2022-09-15T05:41:57.502Z,14.76
2022-09-15T05:44:24.666Z,14.75
2022-09-15T05:46:51.637Z,14.77
2022-09-15T05:49:18.343Z,14.84
2022-09-15T05:51:44.962Z,14.84
2022-09-15T05:54:11.655Z,14.85
2022-09-15T05:56:38.620Z,14.91
2022-09-15T05:59:05.289Z,14.92
2022-09-15T06:01:32.031Z,14.90
2022-09-15T06:03:58.742Z,14.91
2022-09-15T06:06:25.789Z,14.97
2022-09-15T06:08:58.055Z,15.16
2022-09-15T06:11:30.039Z,15.26
2022-09-15T06:13:59.745Z,15.35
2022-09-15T06:19:17.022Z,15.59
2022-09-15T06:21:43.742Z,15.61
2022-09-15T06:24:11.318Z,15.57
2022-09-15T06:26:37.922Z,15.63
2022-09-15T06:29:05.060Z,15.60
2022-09-15T06:31:32.652Z,15.62
2022-09-15T06:33:59.458Z,15.72
2022-09-15T06:36:27.352Z,15.71
2022-09-15T06:38:53.991Z,15.70
2022-09-15T06:41:20.904Z,15.74
2022-09-15T06:43:47.890Z,15.70
2022-09-15T06:46:16.592Z,15.76
2022-09-15T06:48:46.330Z,15.80
2022-09-15T06:51:16.460Z,15.74
2022-09-15T06:53:43.096Z,15.72
2022-09-15T06:56:16.800Z,15.82
2022-09-15T06:58:43.738Z,15.97
2022-09-15T07:01:14.893Z,16.07
2022-09-15T07:03:43.010Z,16.16
2022-09-15T07:06:09.743Z,16.24
2022-09-15T07:08:36.439Z,16.31
2022-09-15T07:11:03.084Z,16.30
2022-09-15T07:13:30.027Z,16.37
2022-09-15T07:15:57.873Z,16.44
2022-09-15T07:18:24.619Z,16.46
2022-09-15T07:20:51.290Z,16.52
2022-09-15T07:23:18.339Z,16.56
2022-09-15T07:25:45.162Z,16.59
2022-09-15T07:28:12.244Z,16.68
2022-09-15T07:30:39.150Z,16.77
2022-09-15T07:33:12.428Z,16.74
2022-09-15T07:35:42.508Z,16.63
2022-09-15T07:38:09.213Z,16.49
2022-09-15T07:40:36.006Z,16.45
2022-09-15T07:43:02.707Z,16.46
2022-09-15T07:45:29.425Z,16.46
2022-09-15T07:47:56.138Z,16.51
2022-09-15T07:50:23.493Z,16.52
2022-09-15T07:52:50.107Z,16.53
2022-09-15T07:55:16.800Z,16.56
2022-09-15T07:57:43.328Z,16.65
2022-09-15T08:00:10.449Z,16.65
2022-09-15T08:02:37.068Z,16.65
2022-09-15T08:05:03.796Z,16.67
2022-09-15T08:07:30.582Z,16.75
2022-09-15T08:09:57.106Z,17.07
2022-09-15T08:12:24.058Z,17.45
2022-09-15T08:14:50.705Z,17.50
2022-09-15T08:17:17.332Z,17.63
2022-09-15T08:19:45.068Z,18.18
2022-09-15T08:22:11.989Z,19.31
2022-09-15T08:24:38.651Z,20.12
2022-09-15T08:27:05.251Z,20.59
2022-09-15T08:29:32.389Z,20.38
2022-09-15T08:31:59.157Z,20.17
2022-09-15T08:34:26.012Z,20.76
2022-09-15T08:36:52.559Z,20.13
2022-09-15T08:39:19.201Z,20.01
2022-09-15T08:41:47.821Z,20.37
2022-09-15T08:44:29.353Z,21.66
2022-09-15T08:47:11.171Z,22.09
2022-09-15T08:49:56.535Z,22.24
2022-09-15T08:52:28.403Z,21.90
2022-09-15T08:54:57.005Z,20.99
2022-09-15T08:57:23.954Z,20.78
2022-09-15T08:59:50.619Z,20.81
2022-09-15T09:02:39.809Z,20.78
2022-09-15T09:05:19.329Z,20.21
2022-09-15T09:08:15.200Z,19.67
2022-09-15T09:11:01.845Z,19.62
2022-09-15T09:13:43.066Z,19.55
2022-09-15T09:16:38.220Z,19.41
2022-09-15T09:19:50.294Z,19.37
2022-09-15T09:22:19.994Z,19.02
2022-09-15T09:24:48.112Z,19.13
2022-09-15T09:27:16.536Z,19.30
2022-09-15T09:29:45.219Z,19.43
2022-09-15T09:32:21.639Z,19.41
2022-09-15T09:35:06.331Z,18.78
2022-09-15T09:37:33.260Z,18.21
2022-09-15T09:40:00.595Z,17.76
2022-09-15T09:42:29.814Z,17.49
2022-09-15T09:44:58.318Z,17.33
2022-09-15T09:47:29.233Z,17.58
2022-09-15T09:49:55.893Z,17.44
2022-09-15T09:52:35.957Z,17.48
2022-09-15T09:58:12.802Z,17.60
2022-09-15T10:00:40.364Z,17.45
2022-09-15T10:03:28.141Z,17.48
2022-09-15T10:06:11.381Z,17.37
2022-09-15T10:08:38.130Z,17.24
2022-09-15T10:11:06.485Z,17.14
2022-09-15T10:13:34.646Z,17.23
2022-09-15T10:16:02.453Z,17.15
2022-09-15T10:18:35.188Z,17.38
2022-09-15T10:21:02.540Z,17.35
2022-09-15T10:23:30.509Z,17.40
2022-09-15T10:26:18.019Z,17.35
2022-09-15T10:28:44.893Z,17.42
2022-09-15T10:31:12.694Z,17.52
2022-09-15T10:33:43.266Z,17.48
2022-09-15T10:36:14.296Z,17.30
2022-09-15T10:38:45.914Z,17.30
2022-09-15T10:41:28.352Z,17.17
2022-09-15T10:44:16.561Z,17.20
2022-09-15T10:46:48.891Z,17.50
2022-09-15T10:49:34.230Z,17.45
2022-09-15T10:52:22.739Z,17.40
2022-09-15T10:55:12.821Z,17.36
2022-09-15T10:58:14.935Z,16.98
2022-09-15T11:00:47.455Z,16.90
2022-09-15T11:03:16.990Z,16.83
2022-09-15T11:06:15.422Z,16.93
2022-09-15T11:08:44.998Z,16.98
2022-09-15T11:11:27.347Z,17.12
2022-09-15T11:14:05.015Z,17.19
2022-09-15T11:16:45.151Z,17.30
2022-09-15T11:19:22.791Z,17.20
2022-09-15T11:22:02.290Z,17.10
2022-09-15T11:24:32.071Z,17.23
2022-09-15T11:26:58.620Z,17.15
2022-09-15T11:29:55.260Z,17.31
2022-09-15T11:32:26.066Z,17.35
2022-09-15T11:35:02.549Z,17.21
2022-09-15T11:37:48.927Z,17.26
2022-09-15T11:40:25.743Z,17.24
2022-09-15T11:42:54.890Z,17.28
2022-09-15T11:45:24.665Z,17.28
2022-09-15T11:47:54.420Z,17.42
2022-09-15T11:50:36.962Z,17.61
2022-09-15T11:53:11.519Z,17.75
2022-09-15T11:55:39.268Z,17.80
2022-09-15T11:58:26.067Z,17.80
2022-09-15T12:01:10.948Z,18.07
2022-09-15T12:03:49.938Z,18.06
2022-09-15T12:06:22.489Z,18.22
2022-09-15T12:08:50.379Z,18.06
2022-09-15T12:11:20.084Z,17.69
2022-09-15T12:13:46.780Z,17.70
2022-09-15T12:16:13.526Z,17.38
2022-09-15T12:19:29.349Z,17.45
2022-09-15T12:22:03.245Z,17.43
2022-09-15T12:24:37.030Z,17.46
2022-09-15T12:27:03.774Z,17.53
2022-09-15T12:29:38.100Z,17.63
2022-09-15T12:32:25.305Z,17.82
2022-09-15T12:35:14.082Z,17.86
2022-09-15T12:37:46.953Z,18.09
2022-09-15T12:40:41.481Z,18.01
2022-09-15T12:43:11.192Z,17.89
2022-09-15T12:45:37.856Z,17.84
2022-09-15T12:48:06.853Z,17.66
2022-09-15T12:50:37.656Z,17.41
2022-09-15T12:53:19.190Z,17.27
2022-09-15T12:56:08.510Z,17.35
2022-09-15T12:58:37.801Z,17.33
2022-09-15T13:01:25.065Z,17.31
2022-09-15T13:03:51.644Z,17.25
2022-09-15T13:06:31.165Z,17.26
2022-09-15T13:09:03.716Z,17.10
2022-09-15T13:11:33.210Z,17.16
2022-09-15T13:14:05.777Z,17.17
2022-09-15T13:16:41.290Z,17.21
2022-09-15T13:19:30.385Z,17.20
2022-09-15T13:22:12.417Z,17.24
2022-09-15T13:24:46.365Z,17.20
2022-09-15T13:27:13.825Z,17.19
2022-09-15T13:30:03.889Z,17.19
2022-09-15T13:32:44.911Z,17.10
2022-09-15T13:35:29.794Z,17.06
2022-09-15T13:38:20.123Z,17.22
2022-09-15T13:40:57.598Z,17.23
2022-09-15T13:43:57.997Z,17.19
2022-09-15T13:46:27.647Z,17.30
2022-09-15T13:49:10.189Z,17.34
2022-09-15T13:51:36.941Z,17.45
2022-09-15T13:54:06.127Z,17.65
2022-09-15T13:56:33.917Z,17.91
2022-09-15T13:59:06.658Z,17.88
2022-09-15T14:01:41.289Z,17.84
2022-09-15T14:04:12.389Z,17.81
2022-09-15T14:06:43.838Z,17.67
2022-09-15T14:09:18.942Z,17.47
2022-09-15T14:11:48.006Z,17.36
2022-09-15T14:14:34.712Z,17.25
2022-09-15T14:17:01.409Z,17.00
2022-09-15T14:19:31.870Z,16.82
2022-09-15T14:21:58.909Z,16.78
2022-09-15T14:24:31.608Z,16.63
2022-09-15T14:27:07.348Z,16.58
2022-09-15T14:29:34.044Z,16.63
2022-09-15T14:32:01.141Z,16.50
2022-09-15T14:34:30.065Z,16.43
2022-09-15T14:37:05.233Z,16.43
2022-09-15T14:39:31.936Z,16.46
2022-09-15T14:47:28.145Z,16.16
2022-09-15T14:50:13.162Z,16.21
2022-09-15T14:52:52.745Z,16.16
2022-09-15T14:55:29.150Z,16.07
2022-09-15T14:57:59.341Z,16.00
2022-09-15T15:00:27.809Z,16.05
2022-09-15T15:03:14.899Z,15.95
2022-09-15T15:06:28.384Z,15.95
2022-09-15T15:08:57.885Z,15.91
2022-09-15T15:11:25.013Z,15.91
2022-09-15T15:13:51.955Z,15.90
2022-09-15T15:16:29.697Z,15.84
2022-09-15T15:18:56.555Z,15.69
2022-09-15T15:21:35.395Z,15.50
2022-09-15T15:24:13.223Z,15.57
2022-09-15T15:26:41.407Z,15.33
2022-09-15T15:29:09.227Z,15.02
2022-09-15T15:31:38.541Z,15.02
2022-09-15T15:34:06.370Z,14.96
2022-09-15T15:36:33.659Z,15.03
2022-09-15T15:39:01.252Z,15.25
2022-09-15T15:41:29.372Z,15.32
2022-09-15T15:44:06.774Z,15.41
2022-09-15T15:47:15.560Z,15.51
2022-09-15T15:50:02.303Z,15.40
2022-09-15T15:52:28.840Z,15.32
2022-09-15T15:54:55.463Z,15.39
2022-09-15T15:57:25.139Z,15.30
2022-09-15T15:59:54.283Z,15.11
2022-09-15T16:02:23.856Z,15.03
2022-09-15T16:04:50.682Z,14.79
2022-09-15T16:07:19.247Z,14.80
2022-09-15T16:09:46.197Z,14.70
2022-09-15T16:12:12.855Z,14.69
2022-09-15T16:14:39.460Z,14.67
2022-09-15T16:17:06.239Z,14.56
2022-09-15T16:19:32.819Z,14.68
2022-09-15T16:21:59.381Z,14.65
2022-09-15T16:24:25.913Z,14.69
2022-09-15T16:26:53.893Z,14.66
2022-09-15T16:29:20.676Z,14.48
2022-09-15T16:31:47.374Z,14.51
2022-09-15T16:34:15.929Z,14.46
2022-09-15T16:36:42.564Z,14.43
2022-09-15T16:39:09.492Z,14.31
2022-09-15T16:41:39.236Z,14.39
2022-09-15T16:44:06.907Z,14.30
2022-09-15T16:46:34.601Z,14.26
2022-09-15T16:49:01.166Z,14.18
2022-09-15T16:51:30.852Z,14.10
2022-09-15T16:53:58.010Z,14.11
2022-09-15T16:56:24.661Z,14.13
2022-09-15T16:58:52.991Z,14.04
2022-09-15T17:01:22.794Z,13.99
2022-09-15T17:03:49.349Z,13.94
2022-09-15T17:06:16.487Z,13.88
2022-09-15T17:08:43.066Z,13.86
2022-09-15T17:11:16.480Z,13.78
2022-09-15T17:13:43.464Z,13.74
2022-09-15T17:16:10.261Z,13.78
2022-09-15T17:18:36.950Z,13.74
2022-09-15T17:21:03.727Z,13.61
2022-09-15T17:23:31.790Z,13.54
2022-09-15T17:25:59.555Z,13.47
2022-09-15T17:28:30.643Z,13.49
2022-09-15T17:31:01.735Z,13.36
2022-09-15T17:33:29.080Z,13.28
2022-09-15T17:35:56.000Z,13.22
2022-09-15T17:38:22.632Z,13.03
2022-09-15T17:40:50.053Z,12.96
2022-09-15T17:43:20.188Z,12.89
2022-09-15T17:45:47.138Z,12.79
2022-09-15T17:48:13.831Z,12.80
2022-09-15T17:50:41.451Z,12.83
2022-09-15T17:53:17.919Z,12.78
2022-09-15T17:55:44.689Z,12.83
2022-09-15T17:58:11.315Z,12.85
2022-09-15T18:00:39.512Z,12.73
2022-09-15T18:03:24.746Z,12.60
2022-09-15T18:05:51.622Z,12.59
2022-09-15T18:08:18.674Z,12.57
2022-09-15T18:10:45.337Z,12.52
2022-09-15T18:13:19.632Z,12.50
2022-09-15T18:15:46.588Z,12.50
2022-09-15T18:18:22.417Z,12.42
2022-09-15T18:20:49.418Z,12.40
2022-09-15T18:23:23.340Z,12.42
2022-09-15T18:25:50.061Z,12.32
2022-09-15T18:28:16.889Z,12.23
2022-09-15T18:30:45.324Z,12.20
2022-09-15T18:33:22.913Z,12.23
2022-09-15T18:35:50.780Z,12.18
2022-09-15T18:38:17.830Z,12.27
2022-09-15T18:40:48.552Z,12.20
2022-09-15T18:43:16.089Z,12.18
2022-09-15T18:45:42.822Z,12.22
2022-09-15T18:48:12.663Z,12.21
2022-09-15T18:50:40.350Z,12.39
2022-09-15T18:53:07.005Z,12.28
2022-09-15T18:55:33.625Z,12.32
2022-09-15T18:58:01.311Z,12.32
2022-09-15T19:00:28.121Z,12.34
2022-09-15T19:02:58.800Z,12.41
2022-09-15T19:05:27.688Z,12.38
2022-09-15T19:07:55.026Z,12.36
2022-09-15T19:10:22.053Z,12.40
2022-09-15T19:12:48.770Z,12.45
2022-09-15T19:15:15.541Z,12.47
2022-09-15T19:17:42.290Z,12.38
2022-09-15T19:20:09.517Z,12.38
2022-09-15T19:22:36.374Z,12.36
2022-09-15T19:25:04.046Z,12.37
2022-09-15T19:27:30.749Z,12.33
2022-09-15T19:29:57.415Z,12.37
2022-09-15T19:32:24.200Z,12.41
2022-09-15T19:34:50.809Z,12.39
2022-09-15T19:37:19.138Z,12.44
2022-09-15T19:39:46.331Z,12.35
2022-09-15T19:42:13.197Z,12.32
2022-09-15T19:44:41.032Z,12.34
2022-09-15T19:47:07.812Z,12.35
2022-09-15T19:49:34.541Z,12.31
2022-09-15T19:52:01.177Z,12.26
2022-09-15T19:54:28.637Z,12.21
2022-09-15T19:56:55.287Z,12.19
2022-09-15T19:59:22.077Z,12.18
2022-09-15T20:01:48.688Z,12.11
2022-09-15T20:04:15.409Z,12.14
2022-09-15T20:06:42.414Z,12.22
2022-09-15T20:09:09.156Z,12.08
2022-09-15T20:11:35.998Z,12.00
2022-09-15T20:14:02.925Z,12.04
2022-09-15T20:16:29.569Z,11.92
2022-09-15T20:18:56.233Z,11.90
2022-09-15T20:21:56.082Z,11.92
2022-09-15T20:24:22.928Z,11.85
2022-09-15T20:26:49.510Z,11.78
2022-09-15T20:29:16.253Z,11.81
2022-09-15T20:31:42.924Z,11.71
2022-09-15T20:34:09.488Z,11.62
2022-09-15T20:36:36.819Z,11.65
2022-09-15T20:39:05.283Z,11.65
2022-09-15T20:41:31.863Z,11.61
2022-09-15T20:43:58.504Z,11.60
2022-09-15T20:46:25.168Z,11.63
2022-09-15T20:48:52.013Z,11.57
2022-09-15T20:51:23.158Z,11.52
2022-09-15T20:53:51.176Z,11.61
2022-09-15T20:56:18.130Z,11.48
2022-09-15T20:58:44.753Z,11.50
2022-09-15T21:01:36.363Z,11.46
2022-09-15T21:04:03.350Z,11.43
2022-09-15T21:06:30.125Z,11.38
2022-09-15T21:08:56.951Z,11.38
2022-09-15T21:11:24.161Z,11.35
2022-09-15T21:13:50.857Z,11.29
2022-09-15T21:16:19.206Z,11.26
2022-09-15T21:18:46.297Z,11.21
2022-09-15T21:21:13.764Z,11.18
2022-09-15T21:23:48.137Z,11.14
2022-09-15T21:26:16.590Z,11.05
2022-09-15T21:28:43.477Z,11.09
2022-09-15T21:31:13.749Z,11.06
2022-09-15T21:33:40.351Z,11.06
2022-09-15T21:36:08.832Z,10.99
2022-09-15T21:38:36.156Z,10.98
2022-09-15T21:41:02.993Z,10.93
2022-09-15T21:43:30.617Z,10.97
2022-09-15T21:45:57.826Z,10.88
2022-09-15T21:48:25.217Z,10.78
2022-09-15T21:50:52.328Z,10.86
2022-09-15T21:53:19.069Z,10.79
2022-09-15T21:55:46.798Z,10.76
2022-09-15T21:58:13.464Z,10.71
2022-09-15T22:00:40.220Z,10.67
2022-09-15T22:03:07.127Z,10.67
2022-09-15T22:05:33.761Z,10.62
2022-09-15T22:08:04.676Z,10.66
2022-09-15T22:10:31.694Z,10.58
2022-09-15T22:12:58.356Z,10.53
2022-09-15T22:15:25.017Z,10.53
2022-09-15T22:17:52.251Z,10.51
2022-09-15T22:20:19.026Z,10.52
2022-09-15T22:22:45.632Z,10.48
2022-09-15T22:25:12.282Z,10.44
2022-09-15T22:27:39.021Z,10.40
2022-09-15T22:30:06.415Z,10.37
2022-09-15T22:32:33.108Z,10.33
2022-09-15T22:34:59.720Z,10.33
2022-09-15T22:37:26.333Z,10.37
2022-09-15T22:39:59.514Z,10.32
2022-09-15T22:42:26.534Z,10.37
2022-09-15T22:44:53.192Z,10.34
2022-09-15T22:47:19.866Z,10.37
2022-09-15T22:49:46.499Z,10.33
2022-09-15T22:52:13.022Z,10.34
2022-09-15T22:54:39.737Z,10.20
2022-09-15T22:57:06.368Z,10.24
2022-09-15T22:59:32.990Z,10.27
2022-09-15T23:01:59.697Z,10.29
2022-09-15T23:04:26.446Z,10.25
2022-09-15T23:06:53.136Z,10.24
2022-09-15T23:09:19.766Z,10.18
2022-09-15T23:11:46.377Z,10.23
2022-09-15T23:14:15.769Z,10.13
2022-09-15T23:16:42.876Z,10.03
2022-09-15T23:19:12.222Z,9.99
2022-09-15T23:21:38.953Z,9.95
2022-09-15T23:24:05.700Z,9.88
2022-09-15T23:26:32.393Z,9.99
2022-09-15T23:28:58.997Z,9.94
2022-09-15T23:31:25.671Z,9.86
2022-09-15T23:33:52.604Z,9.74
2022-09-15T23:36:19.244Z,9.77
2022-09-15T23:38:45.875Z,9.72
2022-09-15T23:41:12.702Z,9.68
2022-09-15T23:43:39.333Z,9.67
2022-09-15T23:46:05.991Z,9.71
2022-09-15T23:48:32.619Z,9.69
2022-09-15T23:50:59.664Z,9.65
2022-09-15T23:53:26.366Z,9.59
2022-09-15T23:55:52.992Z,9.72
2022-09-15T23:58:19.666Z,9.61
